createdAt,value
2022-12-16T00:01:12.609Z,7.00
2022-12-16T00:03:40.759Z,7.20
2022-12-16T00:06:09.110Z,7.40
2022-12-16T00:08:38.769Z,7.00
2022-12-16T00:11:07.637Z,7.00
2022-12-16T00:13:37.531Z,7.00
2022-12-16T00:16:10.827Z,7.10
2022-12-16T00:18:38.569Z,6.90
2022-12-16T00:21:06.016Z,6.80
2022-12-16T00:23:34.325Z,6.80
2022-12-16T00:26:02.316Z,6.80
2022-12-16T00:28:29.162Z,6.80
2022-12-16T00:30:56.926Z,6.70
2022-12-16T00:33:25.832Z,6.70
2022-12-16T00:35:53.900Z,6.70
2022-12-16T00:38:26.962Z,6.70
2022-12-16T00:40:54.285Z,6.70
2022-12-16T00:43:22.199Z,6.80
2022-12-16T00:45:49.870Z,6.70
2022-12-16T00:48:20.329Z,6.60
2022-12-16T00:50:50.788Z,6.50
2022-12-16T00:53:20.310Z,6.60
2022-12-16T00:55:51.356Z,6.70
2022-12-16T00:58:21.568Z,6.70
2022-12-16T01:00:51.564Z,6.80
2022-12-16T01:03:21.800Z,6.70
2022-12-16T01:05:49.856Z,6.80
2022-12-16T01:08:17.333Z,6.70
2022-12-16T01:10:55.347Z,6.70
2022-12-16T01:13:24.387Z,6.80
2022-12-16T01:15:51.987Z,6.70
2022-12-16T01:18:19.360Z,6.70
2022-12-16T01:20:46.475Z,6.60
2022-12-16T01:23:13.249Z,6.80
2022-12-16T01:25:40.225Z,6.60
2022-12-16T01:28:07.101Z,6.50
2022-12-16T01:30:34.287Z,6.60
2022-12-16T01:33:01.059Z,6.50
2022-12-16T01:35:52.567Z,6.60
2022-12-16T01:38:15.616Z,6.70
2022-12-16T01:40:42.730Z,6.70
2022-12-16T01:43:14.126Z,6.70
2022-12-16T01:45:41.253Z,6.60
2022-12-16T01:48:25.466Z,6.60
2022-12-16T01:50:59.364Z,6.60
2022-12-16T01:53:26.452Z,6.70
2022-12-16T01:55:55.611Z,6.70
2022-12-16T01:58:29.753Z,6.80
2022-12-16T02:00:56.675Z,6.80
2022-12-16T02:03:24.420Z,6.80
2022-12-16T02:05:53.380Z,6.80
2022-12-16T02:08:20.688Z,6.80
2022-12-16T02:11:08.154Z,6.70
2022-12-16T02:14:03.061Z,6.80
2022-12-16T02:17:00.362Z,6.80
2022-12-16T02:19:58.109Z,6.70
2022-12-16T02:22:28.613Z,6.80
2022-12-16T02:25:04.356Z,6.90
2022-12-16T02:28:03.138Z,6.80
2022-12-16T02:30:48.790Z,6.80
2022-12-16T02:33:59.843Z,6.70
2022-12-16T02:36:57.857Z,6.80
2022-12-16T02:39:37.840Z,6.80
2022-12-16T02:42:14.039Z,6.80
2022-12-16T02:44:59.202Z,6.90
2022-12-16T02:47:26.090Z,7.00
2022-12-16T02:49:54.285Z,7.00
2022-12-16T02:52:28.087Z,7.00
2022-12-16T02:55:07.761Z,6.90
2022-12-16T02:57:43.690Z,6.80
2022-12-16T03:00:14.032Z,6.80
2022-12-16T03:02:55.530Z,6.90
2022-12-16T03:05:42.915Z,6.80
2022-12-16T03:08:14.635Z,7.00
2022-12-16T03:11:03.052Z,6.90
2022-12-16T03:13:35.865Z,6.80
2022-12-16T03:16:06.790Z,6.80
2022-12-16T03:18:35.568Z,6.90
2022-12-16T03:21:07.165Z,7.00
2022-12-16T03:23:42.049Z,7.00
2022-12-16T03:26:21.751Z,6.90
2022-12-16T03:28:50.837Z,6.90
2022-12-16T03:31:26.493Z,7.10
2022-12-16T03:34:00.181Z,7.00
2022-12-16T03:36:30.875Z,6.90
2022-12-16T03:38:58.474Z,6.90
2022-12-16T03:41:26.396Z,7.00
2022-12-16T03:43:53.587Z,7.00
2022-12-16T03:46:20.628Z,7.40
2022-12-16T03:48:50.726Z,7.10
2022-12-16T03:51:18.511Z,7.00
2022-12-16T03:53:45.934Z,7.00
2022-12-16T03:56:13.525Z,6.90
2022-12-16T03:58:40.494Z,7.00
2022-12-16T04:01:09.637Z,6.90
2022-12-16T04:03:38.006Z,6.80
2022-12-16T04:06:05.792Z,6.70
2022-12-16T04:08:32.672Z,6.50
2022-12-16T04:11:18.243Z,6.60
2022-12-16T04:14:03.459Z,6.50
2022-12-16T04:16:49.376Z,6.60
2022-12-16T04:19:43.118Z,6.50
2022-12-16T04:22:36.423Z,6.30
2022-12-16T04:25:18.785Z,6.20
2022-12-16T04:27:47.968Z,6.10
2022-12-16T04:30:20.028Z,6.20
2022-12-16T04:33:12.422Z,6.30
2022-12-16T04:35:58.333Z,6.40
2022-12-16T04:38:44.096Z,6.50
2022-12-16T04:41:29.676Z,6.60
2022-12-16T04:44:15.312Z,6.60
2022-12-16T04:47:00.788Z,6.80
2022-12-16T04:49:46.453Z,6.80
2022-12-16T04:52:32.524Z,6.80
2022-12-16T04:55:18.008Z,6.70
2022-12-16T04:58:07.353Z,6.60
2022-12-16T05:00:52.829Z,6.70
2022-12-16T05:03:38.458Z,6.70
2022-12-16T05:06:24.402Z,6.70
2022-12-16T05:09:10.022Z,6.50
2022-12-16T05:11:55.568Z,6.40
2022-12-16T05:14:41.089Z,6.50
2022-12-16T05:17:26.530Z,6.50
2022-12-16T05:20:12.201Z,6.50
2022-12-16T05:22:58.059Z,6.60
2022-12-16T05:25:43.804Z,6.60
2022-12-16T05:28:30.117Z,6.60
2022-12-16T05:31:15.647Z,6.70
2022-12-16T05:34:01.182Z,6.60
2022-12-16T05:36:46.804Z,6.50
2022-12-16T05:39:32.025Z,6.50
2022-12-16T05:42:17.637Z,6.30
2022-12-16T05:45:03.237Z,6.40
2022-12-16T05:47:49.169Z,6.50
2022-12-16T05:50:34.626Z,6.40
2022-12-16T05:53:23.401Z,6.40
2022-12-16T05:56:09.295Z,6.40
2022-12-16T05:58:54.772Z,6.40
2022-12-16T06:01:40.159Z,6.40
2022-12-16T06:04:25.470Z,6.30
2022-12-16T06:07:10.853Z,6.30
2022-12-16T06:09:57.089Z,6.30
2022-12-16T06:12:42.742Z,6.30
2022-12-16T06:15:28.802Z,6.50
2022-12-16T06:18:14.160Z,6.20
2022-12-16T06:21:00.401Z,6.10
2022-12-16T06:23:45.697Z,6.20
2022-12-16T06:26:31.133Z,6.10
2022-12-16T06:29:16.496Z,6.10
2022-12-16T06:32:02.089Z,6.20
2022-12-16T06:34:52.519Z,6.40
2022-12-16T06:37:38.009Z,6.10
2022-12-16T06:40:24.129Z,6.20
2022-12-16T06:43:09.612Z,6.10
2022-12-16T06:45:55.566Z,6.10
2022-12-16T06:48:41.383Z,6.30
2022-12-16T06:51:27.108Z,6.20
2022-12-16T06:54:12.301Z,6.20
2022-12-16T06:56:58.296Z,6.30
2022-12-16T06:59:43.632Z,6.40
2022-12-16T07:02:30.150Z,6.50
2022-12-16T07:05:15.518Z,6.40
2022-12-16T07:08:08.900Z,6.60
2022-12-16T07:10:55.449Z,6.80
2022-12-16T07:13:42.128Z,6.70
2022-12-16T07:16:29.275Z,6.70
2022-12-16T07:19:14.646Z,6.60
2022-12-16T07:21:59.943Z,6.70
2022-12-16T07:24:45.113Z,6.70
2022-12-16T07:27:50.481Z,6.80
2022-12-16T07:30:35.992Z,6.80
2022-12-16T07:33:21.384Z,6.80
2022-12-16T07:36:07.182Z,6.80
2022-12-16T07:38:52.568Z,6.90
2022-12-16T07:41:38.189Z,6.90
2022-12-16T07:44:23.635Z,6.90
2022-12-16T07:47:09.652Z,7.00
2022-12-16T07:49:55.428Z,7.20
2022-12-16T07:52:41.206Z,7.40
2022-12-16T07:55:27.543Z,7.80
2022-12-16T07:58:13.019Z,7.90
2022-12-16T08:00:58.617Z,8.20
2022-12-16T08:03:44.270Z,8.40
2022-12-16T08:06:29.818Z,8.60
2022-12-16T08:09:15.420Z,8.80
2022-12-16T08:12:01.258Z,8.90
2022-12-16T08:14:46.956Z,9.00
2022-12-16T08:17:32.238Z,9.00
2022-12-16T08:20:17.846Z,9.00
2022-12-16T08:23:03.228Z,8.90
2022-12-16T08:25:48.496Z,9.10
2022-12-16T08:28:34.141Z,9.30
2022-12-16T08:31:19.696Z,9.40
2022-12-16T08:34:05.443Z,9.60
2022-12-16T08:36:50.933Z,9.80
2022-12-16T08:39:36.912Z,9.90
2022-12-16T08:42:22.354Z,10.20
2022-12-16T08:45:07.885Z,10.60
2022-12-16T08:47:54.493Z,11.00
2022-12-16T08:50:41.949Z,11.30
2022-12-16T08:53:28.025Z,11.30
2022-12-16T08:56:13.963Z,11.40
2022-12-16T08:58:59.847Z,11.50
2022-12-16T09:01:45.414Z,11.40
2022-12-16T09:04:31.099Z,11.40
2022-12-16T09:07:16.763Z,11.40
2022-12-16T09:10:02.401Z,11.40
2022-12-16T09:12:47.771Z,11.40
2022-12-16T09:15:32.977Z,11.40
2022-12-16T09:18:18.470Z,11.40
2022-12-16T09:21:03.935Z,11.40
2022-12-16T09:23:49.505Z,11.40
2022-12-16T09:26:35.209Z,11.40
2022-12-16T09:29:20.423Z,11.40
2022-12-16T09:32:06.118Z,11.40
2022-12-16T09:34:51.997Z,11.30
2022-12-16T09:37:38.069Z,11.30
2022-12-16T09:40:24.011Z,11.20
2022-12-16T09:43:46.414Z,11.20
2022-12-16T09:46:41.540Z,11.00
2022-12-16T09:49:42.380Z,10.90
2022-12-16T09:52:36.070Z,10.70
2022-12-16T09:55:23.560Z,10.80
2022-12-16T09:58:10.692Z,10.90
2022-12-16T10:00:56.202Z,11.10
2022-12-16T10:03:48.256Z,11.30
2022-12-16T10:06:54.612Z,11.60
2022-12-16T10:10:07.368Z,11.80
2022-12-16T10:13:04.608Z,12.30
2022-12-16T10:16:10.929Z,13.20
2022-12-16T10:19:01.990Z,14.40
2022-12-16T10:21:54.803Z,15.50
2022-12-16T10:24:57.775Z,16.30
2022-12-16T10:27:53.810Z,17.10
2022-12-16T10:30:39.815Z,17.50
2022-12-16T10:33:30.566Z,18.10
2022-12-16T10:36:16.192Z,18.40
2022-12-16T10:39:12.236Z,18.20
2022-12-16T10:42:01.799Z,17.80
2022-12-16T10:45:07.841Z,17.30
2022-12-16T10:47:54.382Z,16.70
2022-12-16T10:50:40.681Z,16.50
2022-12-16T10:53:37.124Z,16.60
2022-12-16T10:56:36.354Z,17.10
2022-12-16T10:59:26.189Z,17.30
2022-12-16T11:02:23.836Z,18.30
2022-12-16T11:05:09.764Z,19.00
2022-12-16T11:08:03.961Z,19.30
2022-12-16T11:11:02.750Z,19.50
2022-12-16T11:13:53.436Z,20.10
2022-12-16T11:16:44.990Z,20.60
2022-12-16T11:19:47.617Z,21.20
2022-12-16T11:22:41.022Z,21.30
2022-12-16T11:25:35.542Z,21.60
2022-12-16T11:28:40.078Z,21.70
2022-12-16T11:31:31.419Z,21.60
2022-12-16T11:34:18.504Z,21.60
2022-12-16T11:37:05.553Z,21.60
2022-12-16T11:39:53.380Z,21.70
2022-12-16T11:42:42.290Z,21.50
2022-12-16T11:45:38.648Z,21.40
2022-12-16T11:48:46.942Z,21.10
2022-12-16T11:51:34.493Z,21.50
2022-12-16T11:54:47.112Z,22.00
2022-12-16T11:57:53.729Z,22.10
2022-12-16T12:00:40.171Z,22.00
2022-12-16T12:03:30.160Z,21.80
2022-12-16T12:06:24.725Z,21.60
2022-12-16T12:09:27.999Z,21.60
2022-12-16T12:12:33.596Z,21.50
2022-12-16T12:16:03.150Z,21.40
2022-12-16T12:19:44.321Z,21.20
2022-12-16T12:22:45.695Z,21.10
2022-12-16T12:25:31.545Z,21.10
2022-12-16T12:28:45.970Z,21.10
2022-12-16T12:31:41.718Z,21.10
2022-12-16T12:34:55.407Z,21.10
2022-12-16T12:38:01.851Z,21.30
2022-12-16T12:41:11.476Z,21.40
2022-12-16T12:44:17.557Z,21.90
2022-12-16T12:47:12.377Z,22.50
2022-12-16T12:50:35.395Z,23.10
2022-12-16T12:53:53.290Z,24.70
2022-12-16T12:56:46.479Z,25.80
2022-12-16T13:00:06.217Z,26.50
2022-12-16T13:03:00.914Z,26.40
2022-12-16T13:05:49.684Z,26.60
2022-12-16T13:09:09.511Z,28.00
2022-12-16T13:11:56.093Z,30.00
2022-12-16T13:14:51.476Z,31.40
2022-12-16T13:17:38.476Z,31.50
2022-12-16T13:20:45.904Z,31.30
2022-12-16T13:23:46.112Z,30.80
2022-12-16T13:26:37.271Z,30.60
2022-12-16T13:29:44.408Z,30.40
2022-12-16T13:32:41.248Z,30.40
2022-12-16T13:35:29.491Z,30.30
2022-12-16T13:38:20.950Z,30.20
2022-12-16T13:41:07.856Z,30.00
2022-12-16T13:44:05.604Z,30.00
2022-12-16T13:47:06.829Z,29.60
2022-12-16T13:49:54.829Z,29.30
2022-12-16T13:52:58.937Z,29.30
2022-12-16T13:56:07.176Z,29.10
2022-12-16T13:59:01.917Z,29.20
2022-12-16T14:01:54.040Z,29.00
2022-12-16T14:04:45.168Z,28.70
2022-12-16T14:07:32.386Z,28.30
2022-12-16T14:10:18.332Z,27.90
2022-12-16T14:13:28.255Z,27.30
2022-12-16T14:16:26.445Z,27.20
2022-12-16T14:19:11.984Z,25.70
2022-12-16T14:22:32.794Z,24.60
2022-12-16T14:25:28.838Z,23.40
2022-12-16T14:28:14.233Z,22.60
2022-12-16T14:31:00.819Z,22.80
2022-12-16T14:33:48.146Z,22.90
2022-12-16T14:36:45.319Z,23.10
2022-12-16T14:39:42.034Z,23.00
2022-12-16T14:42:48.306Z,22.20
2022-12-16T14:45:53.299Z,21.00
2022-12-16T14:48:50.042Z,20.10
2022-12-16T14:51:39.529Z,19.20
2022-12-16T14:54:36.936Z,18.60
2022-12-16T14:57:23.732Z,18.00
2022-12-16T15:00:29.386Z,17.80
2022-12-16T15:03:37.390Z,17.90
2022-12-16T15:06:28.756Z,17.80
2022-12-16T15:09:20.745Z,17.80
2022-12-16T15:12:08.318Z,17.20
2022-12-16T15:14:57.818Z,16.20
2022-12-16T15:17:51.695Z,15.80
2022-12-16T15:20:46.116Z,15.20
2022-12-16T15:23:53.040Z,14.90
2022-12-16T15:26:40.698Z,14.30
2022-12-16T15:29:55.504Z,13.90
2022-12-16T15:32:43.585Z,13.70
2022-12-16T15:35:54.486Z,13.50
2022-12-16T15:38:42.857Z,13.40
2022-12-16T15:41:49.306Z,13.30
2022-12-16T15:44:45.568Z,13.10
2022-12-16T15:47:52.149Z,13.00
2022-12-16T15:50:43.311Z,12.80
2022-12-16T15:53:49.832Z,12.70
2022-12-16T15:56:45.332Z,12.90
2022-12-16T15:59:49.477Z,12.80
2022-12-16T16:02:38.141Z,12.60
2022-12-16T16:05:32.748Z,12.50
2022-12-16T16:08:18.144Z,12.50
2022-12-16T16:11:04.575Z,12.40
2022-12-16T16:13:50.058Z,12.30
2022-12-16T16:16:36.065Z,12.20
2022-12-16T16:19:21.998Z,12.30
2022-12-16T16:22:07.454Z,12.30
2022-12-16T16:24:53.102Z,12.20
2022-12-16T16:27:38.672Z,12.20
2022-12-16T16:30:25.024Z,12.20
2022-12-16T16:33:10.585Z,12.20
2022-12-16T16:35:56.408Z,12.20
2022-12-16T16:38:42.280Z,12.20
2022-12-16T16:41:33.724Z,12.20
2022-12-16T16:44:19.915Z,12.20
2022-12-16T16:47:05.817Z,12.10
2022-12-16T16:49:59.652Z,12.00
2022-12-16T16:52:46.387Z,12.00
2022-12-16T16:55:40.900Z,11.80
2022-12-16T16:58:39.089Z,11.80
2022-12-16T17:01:24.740Z,11.70
2022-12-16T17:04:10.468Z,11.70
2022-12-16T17:06:56.072Z,11.70
2022-12-16T17:09:41.394Z,11.70
2022-12-16T17:12:44.126Z,11.60
2022-12-16T17:15:39.373Z,11.40
2022-12-16T17:18:25.990Z,11.40
2022-12-16T17:21:12.480Z,11.20
2022-12-16T17:23:58.358Z,11.10
2022-12-16T17:26:43.635Z,11.00
2022-12-16T17:29:40.841Z,10.80
2022-12-16T17:32:26.865Z,10.70
2022-12-16T17:35:12.694Z,10.60
2022-12-16T17:37:58.238Z,10.60
2022-12-16T17:40:44.031Z,10.60
2022-12-16T17:43:29.763Z,10.50
2022-12-16T17:46:15.964Z,10.50
2022-12-16T17:49:01.520Z,10.50
2022-12-16T17:51:46.850Z,10.50
2022-12-16T17:54:31.993Z,10.40
2022-12-16T17:57:17.672Z,10.30
2022-12-16T18:00:02.735Z,10.10
2022-12-16T18:02:48.735Z,10.20
2022-12-16T18:05:41.162Z,10.20
2022-12-16T18:08:29.939Z,10.10
2022-12-16T18:11:17.159Z,10.20
2022-12-16T18:14:03.446Z,10.20
2022-12-16T18:16:49.585Z,10.10
2022-12-16T18:19:35.673Z,10.20
2022-12-16T18:22:21.355Z,10.10
2022-12-16T18:25:06.678Z,10.10
2022-12-16T18:27:52.183Z,10.10
2022-12-16T18:30:38.042Z,10.10
2022-12-16T18:33:23.440Z,10.20
2022-12-16T18:36:09.039Z,10.30
2022-12-16T18:38:54.656Z,10.40
2022-12-16T18:41:41.319Z,10.50
2022-12-16T18:44:30.233Z,10.60
2022-12-16T18:47:16.018Z,10.50
2022-12-16T18:50:01.427Z,10.50
2022-12-16T18:52:47.052Z,10.50
2022-12-16T18:55:32.952Z,10.60
2022-12-16T18:58:49.216Z,10.60
2022-12-16T19:01:27.077Z,10.60
2022-12-16T19:04:13.907Z,10.60
2022-12-16T19:06:59.252Z,10.70
2022-12-16T19:09:44.575Z,10.70
2022-12-16T19:12:30.181Z,10.70
2022-12-16T19:15:16.016Z,10.70
2022-12-16T19:18:01.756Z,10.80
2022-12-16T19:20:47.024Z,10.90
2022-12-16T19:23:34.725Z,10.80
2022-12-16T19:26:20.538Z,10.80
2022-12-16T19:29:06.195Z,10.90
2022-12-16T19:31:51.860Z,10.90
2022-12-16T19:34:37.631Z,10.70
2022-12-16T19:37:23.278Z,10.70
2022-12-16T19:40:08.895Z,10.80
2022-12-16T19:42:55.846Z,10.70
2022-12-16T19:45:41.935Z,10.80
2022-12-16T19:48:27.414Z,10.70
2022-12-16T19:51:17.582Z,10.60
2022-12-16T19:54:04.057Z,10.70
2022-12-16T19:56:50.738Z,10.80
2022-12-16T19:59:38.972Z,11.00
2022-12-16T20:02:25.756Z,11.00
2022-12-16T20:05:11.380Z,11.10
2022-12-16T20:07:56.793Z,11.10
2022-12-16T20:10:42.600Z,11.00
2022-12-16T20:13:30.247Z,11.10
2022-12-16T20:16:27.443Z,11.00
2022-12-16T20:19:13.488Z,11.10
2022-12-16T20:22:04.551Z,11.10
2022-12-16T20:24:52.585Z,11.20
2022-12-16T20:27:42.145Z,11.20
2022-12-16T20:30:29.031Z,11.30
2022-12-16T20:33:14.832Z,11.30
2022-12-16T20:36:00.397Z,11.30
2022-12-16T20:38:45.763Z,11.20
2022-12-16T20:41:31.428Z,11.10
2022-12-16T20:44:17.409Z,11.10
2022-12-16T20:47:02.898Z,11.00
2022-12-16T20:49:48.446Z,10.90
2022-12-16T20:52:34.143Z,10.90
2022-12-16T20:55:19.844Z,10.90
2022-12-16T20:58:15.903Z,10.90
2022-12-16T21:01:01.598Z,10.90
2022-12-16T21:03:47.322Z,11.00
2022-12-16T21:06:32.870Z,11.00
2022-12-16T21:09:18.426Z,11.00
2022-12-16T21:12:03.931Z,11.00
2022-12-16T21:14:49.717Z,10.90
2022-12-16T21:17:35.234Z,10.90
2022-12-16T21:20:21.432Z,10.90
2022-12-16T21:23:20.755Z,10.80
2022-12-16T21:26:06.911Z,10.80
2022-12-16T21:28:52.582Z,10.90
2022-12-16T21:31:41.599Z,10.80
2022-12-16T21:34:27.052Z,10.90
2022-12-16T21:37:12.462Z,10.90
2022-12-16T21:39:57.732Z,11.00
2022-12-16T21:42:44.275Z,10.90
2022-12-16T21:45:30.898Z,10.80
2022-12-16T21:48:16.292Z,10.90
2022-12-16T21:51:01.603Z,11.00
2022-12-16T21:53:47.624Z,11.00
2022-12-16T21:56:33.397Z,11.00
2022-12-16T21:59:18.628Z,10.90
2022-12-16T22:02:05.219Z,10.90
2022-12-16T22:04:50.624Z,11.00
2022-12-16T22:07:35.945Z,11.00
2022-12-16T22:10:23.259Z,11.10
2022-12-16T22:13:08.806Z,11.20
2022-12-16T22:15:59.401Z,11.30
2022-12-16T22:18:48.014Z,11.30
2022-12-16T22:21:33.699Z,11.30
2022-12-16T22:24:19.661Z,11.30
2022-12-16T22:27:05.254Z,11.40
2022-12-16T22:29:50.643Z,11.40
2022-12-16T22:32:36.060Z,11.40
2022-12-16T22:35:21.552Z,11.40
2022-12-16T22:38:06.988Z,11.30
2022-12-16T22:40:52.749Z,11.30
2022-12-16T22:43:48.672Z,11.30
2022-12-16T22:46:34.631Z,11.30
2022-12-16T22:49:20.271Z,11.30
2022-12-16T22:52:05.977Z,11.20
2022-12-16T22:54:51.897Z,11.20
2022-12-16T22:57:38.748Z,11.10
2022-12-16T23:00:24.847Z,10.80
2022-12-16T23:03:10.550Z,10.70
2022-12-16T23:05:55.719Z,10.70
2022-12-16T23:08:41.803Z,10.80
2022-12-16T23:11:37.446Z,10.70
2022-12-16T23:14:22.854Z,10.60
2022-12-16T23:17:08.459Z,10.60
2022-12-16T23:19:56.332Z,10.50
2022-12-16T23:22:42.234Z,10.40
2022-12-16T23:25:27.467Z,10.40
2022-12-16T23:28:16.197Z,10.30
2022-12-16T23:31:01.789Z,10.40
2022-12-16T23:33:47.501Z,10.50
2022-12-16T23:36:33.477Z,10.50
2022-12-16T23:39:18.934Z,10.40
2022-12-16T23:42:05.258Z,10.40
2022-12-16T23:44:55.185Z,10.40
2022-12-16T23:47:42.251Z,10.40
2022-12-16T23:50:28.049Z,10.50
2022-12-16T23:53:24.554Z,10.60
2022-12-16T23:56:16.855Z,10.60
2022-12-16T23:59:03.479Z,10.70
